Disclaimer

Please do not use the information listed here in-flight or in-navigation, as they are not provided to us by the airports but are provided by volunteers, so they might be outdated.

Search


Regions


Airport information page

Radio informations:
LIBERIA TWR - 118.8 MHz
Ground (GND) - 121.7 MHz

Airport informations:
Latitude: 10° 35' 35.84" N
Longitude: 085° 32' 39.87" W
Elevation: 270 feet - 82 meters
Operating hours: Remarks
Operating agency: Civil government, landing fees and diplomatic clearance may be required
Timezone: UTC-6
Fuel: Aviation Gasoline (AVGAS), octane unknown.

Runway information:
07/25 - 9022 x 148 feet< - >2750 x 45 meters

Recent METARs:
MRLB 191700Z 08015KT 9999 VCSH FEW045 31/23 A2983 NOSIG
MRLB 191700Z 08015KT 9999 VCSH FEW045 31/23 A2983 NOSIG
MRLB 191800Z 07017KT 9999 SCT045 33/23 A2980 NOSIG

Airport on the map: